Time;durP1;ratioP1;P1;durP2;ratioP2;P2;SDS_P1;SDS_P2;PMS_P1;PMS_P2;Temp;Humidity;BMP_temperature;BMP_pressure;BME280_temperature;BME280_humidity;BME280_pressure;Samples;Min_cycle;Max_cycle;Signal;HPM_P1;HPM_P2
2022/05/22 00:00:23;;;;;;;;;;;14.50;76.00;;;;;;5070560;28;20007;-74
2022/05/22 00:02:48;;;;;;;;;;;14.50;75.90;;;;;;5088603;28;19908;-74
2022/05/22 00:05:17;;;;;;;;;;;14.50;76.20;;;;;;5088611;28;20478;-73
2022/05/22 00:07:43;;;;;;;;;;;14.50;76.10;;;;;;5088300;28;19915;-73
2022/05/22 00:10:09;;;;;;;;;;;14.50;76.20;;;;;;5088291;28;19973;-74
2022/05/22 00:12:35;;;;;;;;;;;14.50;76.10;;;;;;5087527;28;19912;-74
2022/05/22 00:15:01;;;;;;;;;;;14.60;76.00;;;;;;5088307;28;19964;-74
2022/05/22 00:17:26;;;;;;;;;;;14.70;75.90;;;;;;5070068;28;20333;-74
2022/05/22 00:19:52;;;;;;;;;;;14.60;75.70;;;;;;5088202;28;20247;-73
2022/05/22 00:22:18;;;;;;;;;;;14.70;75.80;;;;;;5053061;28;19919;-75
2022/05/22 00:24:43;;;;;;;;;;;14.70;76.00;;;;;;5088061;28;19908;-74
2022/05/22 00:27:09;;;;;;;;;;;14.80;76.10;;;;;;5087960;28;19986;-73
2022/05/22 00:29:35;;;;;;;;;;;14.90;76.10;;;;;;5087826;28;20015;-74
2022/05/22 00:32:00;;;;;;;;;;;15.00;76.10;;;;;;5088054;28;19912;-74
2022/05/22 00:34:26;;;;;;;;;;;15.10;76.10;;;;;;5069926;28;19916;-74
2022/05/22 00:36:52;;;;;;;;;;;15.10;76.00;;;;;;5087872;28;19916;-74
2022/05/22 00:39:17;;;;;;;;;;;15.20;76.20;;;;;;5070130;28;19957;-75
2022/05/22 00:41:47;;;;;;;;;;;15.20;76.20;;;;;;5088057;28;19916;-74
2022/05/22 00:44:12;;;;;;;;;;;15.20;76.50;;;;;;5069884;28;20371;-74
2022/05/22 00:46:38;;;;;;;;;;;15.20;76.60;;;;;;5087976;28;19940;-74
2022/05/22 00:49:10;;;;;;;;;;;15.20;77.10;;;;;;5069911;28;19925;-73
2022/05/22 00:51:39;;;;;;;;;;;15.20;76.70;;;;;;5088117;28;19912;-73
2022/05/22 00:54:12;;;;;;;;;;;15.10;76.90;;;;;;5069971;28;19931;-74
2022/05/22 00:56:39;;;;;;;;;;;15.10;77.00;;;;;;5087978;28;19913;-74
2022/05/22 00:59:07;;;;;;;;;;;15.00;77.00;;;;;;5088380;28;19916;-75
2022/05/22 01:01:33;;;;;;;;;;;15.00;77.10;;;;;;5069939;28;20246;-74
2022/05/22 01:03:59;;;;;;;;;;;14.90;77.20;;;;;;5087742;28;20081;-74
2022/05/22 01:06:26;;;;;;;;;;;14.90;77.50;;;;;;5073682;28;19919;-74
2022/05/22 01:08:52;;;;;;;;;;;14.80;77.40;;;;;;5091940;28;20006;-74
2022/05/22 01:11:22;;;;;;;;;;;14.80;77.30;;;;;;5073762;28;20071;-73
2022/05/22 01:13:53;;;;;;;;;;;14.80;77.20;;;;;;5073486;28;20388;-73
2022/05/22 01:16:19;;;;;;;;;;;14.70;77.60;;;;;;5091573;28;20282;-74
2022/05/22 01:18:49;;;;;;;;;;;14.70;77.50;;;;;;5092034;28;19908;-73
2022/05/22 01:21:19;;;;;;;;;;;14.70;77.70;;;;;;5091514;28;19915;-70
2022/05/22 01:23:45;;;;;;;;;;;14.70;77.50;;;;;;5073302;28;19914;-75
2022/05/22 01:26:11;;;;;;;;;;;14.70;77.50;;;;;;5073544;28;20273;-74
2022/05/22 01:28:37;;;;;;;;;;;14.70;77.50;;;;;;5091697;28;19966;-74
2022/05/22 01:31:03;;;;;;;;;;;14.70;77.60;;;;;;5091620;28;20324;-74
2022/05/22 01:33:29;;;;;;;;;;;14.70;78.30;;;;;;5091307;28;19954;-73
2022/05/22 01:35:54;;;;;;;;;;;14.70;77.90;;;;;;5091648;28;19973;-74
2022/05/22 01:38:20;;;;;;;;;;;14.80;78.40;;;;;;5091665;28;19962;-74
2022/05/22 01:40:46;;;;;;;;;;;14.90;78.60;;;;;;5091637;28;19963;-74
2022/05/22 01:43:12;;;;;;;;;;;14.90;78.50;;;;;;5091327;28;20328;-74
2022/05/22 01:45:40;;;;;;;;;;;15.00;78.50;;;;;;5091476;28;19964;-74
2022/05/22 01:48:05;;;;;;;;;;;15.10;78.60;;;;;;5091476;28;19963;-73
2022/05/22 01:50:31;;;;;;;;;;;15.10;78.90;;;;;;5091277;28;19989;-74
2022/05/22 01:52:57;;;;;;;;;;;15.10;78.80;;;;;;5091136;28;19912;-75
2022/05/22 01:55:22;;;;;;;;;;;15.10;78.80;;;;;;5091207;28;19919;-74
2022/05/22 01:57:48;;;;;;;;;;;15.20;78.90;;;;;;5073077;28;20036;-75
2022/05/22 02:00:15;;;;;;;;;;;15.20;79.10;;;;;;5091466;28;19919;-75
2022/05/22 02:02:41;;;;;;;;;;;15.20;79.00;;;;;;5072849;28;19916;-75
2022/05/22 02:05:06;;;;;;;;;;;15.30;79.20;;;;;;5091060;28;19997;-74
2022/05/22 02:10:16;;;;;;;;;;;15.30;79.20;;;;;;5090921;28;19919;-74
2022/05/22 02:12:41;;;;;;;;;;;15.30;79.30;;;;;;5055951;28;20354;-75
2022/05/22 02:15:07;;;;;;;;;;;15.30;79.40;;;;;;5090874;28;20281;-73
2022/05/22 02:17:33;;;;;;;;;;;15.30;79.40;;;;;;5071736;28;19976;-73
2022/05/22 02:19:59;;;;;;;;;;;15.30;79.40;;;;;;5090702;28;19912;-74
2022/05/22 02:22:25;;;;;;;;;;;15.30;79.50;;;;;;5090655;28;19912;-73
2022/05/22 02:24:51;;;;;;;;;;;15.20;79.80;;;;;;5090927;28;20038;-74
2022/05/22 02:27:17;;;;;;;;;;;15.20;79.80;;;;;;5090587;28;20008;-74
2022/05/22 02:29:42;;;;;;;;;;;15.20;79.80;;;;;;5072587;28;19993;-73
2022/05/22 02:32:08;;;;;;;;;;;15.10;79.80;;;;;;5090474;28;19947;-75
2022/05/22 02:34:34;;;;;;;;;;;15.10;80.10;;;;;;5090375;28;19908;-74
2022/05/22 02:37:00;;;;;;;;;;;15.20;80.20;;;;;;5090217;28;19973;-76
2022/05/22 02:39:26;;;;;;;;;;;15.20;80.10;;;;;;5090300;28;19915;-74
2022/05/22 02:41:51;;;;;;;;;;;15.30;80.00;;;;;;5090218;28;19908;-73
2022/05/22 02:44:17;;;;;;;;;;;15.30;80.20;;;;;;5090278;28;19947;-74
2022/05/22 02:46:43;;;;;;;;;;;15.30;80.10;;;;;;5072240;28;20343;-76
2022/05/22 02:49:08;;;;;;;;;;;15.30;80.10;;;;;;5071922;28;19932;-74
2022/05/22 02:51:34;;;;;;;;;;;15.30;80.30;;;;;;5089979;28;20366;-74
2022/05/22 02:53:59;;;;;;;;;;;15.30;80.20;;;;;;5055026;28;19932;-74
2022/05/22 02:56:25;;;;;;;;;;;15.40;80.20;;;;;;5071726;28;20358;-75
2022/05/22 02:58:52;;;;;;;;;;;15.40;80.10;;;;;;5089899;28;19908;-73
2022/05/22 03:01:17;;;;;;;;;;;15.50;80.20;;;;;;5071723;28;19908;-74
2022/05/22 03:03:43;;;;;;;;;;;15.50;80.20;;;;;;5089911;28;20366;-74
2022/05/22 03:08:53;;;;;;;;;;;15.60;80.20;;;;;;5089774;28;19919;-75
2022/05/22 03:11:18;;;;;;;;;;;15.50;80.20;;;;;;5071574;28;19920;-75
2022/05/22 03:13:44;;;;;;;;;;;15.50;80.10;;;;;;5071746;28;20018;-74
2022/05/22 03:16:09;;;;;;;;;;;15.60;80.20;;;;;;5089731;28;20265;-73
2022/05/22 03:18:35;;;;;;;;;;;15.60;80.40;;;;;;5089281;28;19908;-75
2022/05/22 03:21:00;;;;;;;;;;;15.50;80.20;;;;;;5089652;28;19973;-73
2022/05/22 03:23:26;;;;;;;;;;;15.50;80.20;;;;;;5071469;28;19916;-75
2022/05/22 03:25:51;;;;;;;;;;;15.50;80.00;;;;;;5089561;28;19923;-75
2022/05/22 03:28:17;;;;;;;;;;;15.50;80.20;;;;;;5053569;28;19912;-74
2022/05/22 03:30:43;;;;;;;;;;;15.40;80.10;;;;;;5089429;28;19908;-74
2022/05/22 03:33:09;;;;;;;;;;;15.40;80.20;;;;;;5089251;28;20393;-73
2022/05/22 03:35:34;;;;;;;;;;;15.40;80.10;;;;;;5089292;28;19966;-73
2022/05/22 03:38:01;;;;;;;;;;;15.30;79.90;;;;;;5089175;28;19965;-75
2022/05/22 03:40:27;;;;;;;;;;;15.30;80.10;;;;;;5089215;28;19908;-74
2022/05/22 03:42:52;;;;;;;;;;;15.20;80.10;;;;;;5070719;28;20251;-75
2022/05/22 03:45:18;;;;;;;;;;;15.20;80.60;;;;;;5070932;28;19970;-74
2022/05/22 03:47:43;;;;;;;;;;;15.20;80.50;;;;;;5054040;28;19926;-73
2022/05/22 03:50:10;;;;;;;;;;;15.20;80.50;;;;;;5089250;28;20285;-74
2022/05/22 03:52:37;;;;;;;;;;;15.20;80.40;;;;;;5089002;28;19947;-75
2022/05/22 03:55:07;;;;;;;;;;;15.20;80.30;;;;;;5088916;28;19908;-74
2022/05/22 03:57:33;;;;;;;;;;;15.20;80.30;;;;;;5085770;28;19919;-75
2022/05/22 03:59:58;;;;;;;;;;;15.20;80.50;;;;;;5088761;28;19911;-75
2022/05/22 04:02:24;;;;;;;;;;;15.20;80.50;;;;;;5088580;28;19917;-75
2022/05/22 04:04:49;;;;;;;;;;;15.20;80.40;;;;;;5070442;28;19931;-74
2022/05/22 04:07:15;;;;;;;;;;;15.30;80.40;;;;;;5088586;28;19951;-73
2022/05/22 04:09:41;;;;;;;;;;;15.30;80.30;;;;;;5088657;28;20309;-74
2022/05/22 04:12:08;;;;;;;;;;;15.40;80.50;;;;;;5088537;28;19923;-75
2022/05/22 04:14:34;;;;;;;;;;;15.40;80.40;;;;;;5088043;28;19908;-74
2022/05/22 04:16:59;;;;;;;;;;;15.40;80.50;;;;;;5088222;28;20322;-74
2022/05/22 04:19:25;;;;;;;;;;;15.40;80.40;;;;;;5070218;28;19919;-74
2022/05/22 04:21:51;;;;;;;;;;;15.40;80.40;;;;;;5088345;28;20428;-75
2022/05/22 04:27:04;;;;;;;;;;;15.40;80.40;;;;;;5088432;28;20066;-74
2022/05/22 04:29:31;;;;;;;;;;;15.30;80.50;;;;;;5088224;28;19912;-75
2022/05/22 04:31:56;;;;;;;;;;;15.40;80.50;;;;;;5070044;28;19916;-74
2022/05/22 04:34:22;;;;;;;;;;;15.30;80.90;;;;;;5088396;28;19961;-74
2022/05/22 04:36:47;;;;;;;;;;;15.40;81.00;;;;;;5070201;28;19916;-75
2022/05/22 04:39:13;;;;;;;;;;;15.40;81.10;;;;;;5088040;28;19927;-75
2022/05/22 04:41:39;;;;;;;;;;;15.40;81.10;;;;;;5088304;28;19999;-75
2022/05/22 04:44:05;;;;;;;;;;;15.40;81.10;;;;;;5069859;28;19916;-74
2022/05/22 04:46:30;;;;;;;;;;;15.40;81.00;;;;;;5070003;28;19954;-74
2022/05/22 04:48:56;;;;;;;;;;;15.50;80.90;;;;;;5087888;28;19959;-74
2022/05/22 04:51:21;;;;;;;;;;;15.50;80.80;;;;;;5088288;28;19951;-74
2022/05/22 04:53:47;;;;;;;;;;;15.50;80.70;;;;;;5088015;28;19912;-73
2022/05/22 04:56:13;;;;;;;;;;;15.40;81.00;;;;;;5069778;28;19916;-75
2022/05/22 04:58:39;;;;;;;;;;;15.30;80.90;;;;;;5087972;28;19951;-76
2022/05/22 05:01:08;;;;;;;;;;;15.30;81.00;;;;;;5087987;28;19950;-74
2022/05/22 05:03:34;;;;;;;;;;;15.20;81.00;;;;;;5087936;28;20010;-74
2022/05/22 05:05:59;;;;;;;;;;;15.20;81.10;;;;;;5069870;28;20402;-73
2022/05/22 05:08:26;;;;;;;;;;;15.20;81.10;;;;;;5087992;28;19912;-74
2022/05/22 05:10:52;;;;;;;;;;;15.20;81.10;;;;;;5053133;28;20259;-75
2022/05/22 05:13:18;;;;;;;;;;;15.30;81.10;;;;;;5087788;28;19934;-74
2022/05/22 05:15:44;;;;;;;;;;;15.30;81.10;;;;;;5087820;28;19912;-74
2022/05/22 05:18:10;;;;;;;;;;;15.30;81.20;;;;;;5087655;28;20344;-73
2022/05/22 05:20:37;;;;;;;;;;;15.40;81.30;;;;;;5069735;28;19919;-74
2022/05/22 05:23:05;;;;;;;;;;;15.40;81.40;;;;;;5087745;28;19909;-75
2022/05/22 05:25:31;;;;;;;;;;;15.30;81.40;;;;;;5087750;28;19912;-74
2022/05/22 05:27:57;;;;;;;;;;;15.40;81.40;;;;;;5087679;28;19935;-75
2022/05/22 05:30:22;;;;;;;;;;;15.40;81.70;;;;;;5087748;28;20357;-74
2022/05/22 05:32:53;;;;;;;;;;;15.50;81.70;;;;;;5087792;28;19920;-74
2022/05/22 05:35:18;;;;;;;;;;;15.60;81.60;;;;;;5087995;28;19969;-74
2022/05/22 05:37:44;;;;;;;;;;;15.60;81.60;;;;;;5069442;28;19920;-73
2022/05/22 05:40:10;;;;;;;;;;;15.70;81.60;;;;;;5069383;28;19961;-75
2022/05/22 05:42:36;;;;;;;;;;;15.70;81.70;;;;;;5087556;28;19915;-74
2022/05/22 05:45:06;;;;;;;;;;;15.80;81.80;;;;;;5087576;28;20259;-75
2022/05/22 05:47:31;;;;;;;;;;;15.80;81.90;;;;;;5087325;28;19908;-74
2022/05/22 05:49:57;;;;;;;;;;;15.90;81.80;;;;;;5087396;28;20285;-75
2022/05/22 05:52:22;;;;;;;;;;;15.90;82.00;;;;;;5089158;28;20028;-75
2022/05/22 05:54:48;;;;;;;;;;;15.90;82.00;;;;;;5056321;28;19924;-75
2022/05/22 05:57:16;;;;;;;;;;;15.90;82.20;;;;;;5056478;28;20007;-75
2022/05/22 05:59:42;;;;;;;;;;;16.00;82.20;;;;;;5056215;28;19912;-74
2022/05/22 06:02:12;;;;;;;;;;;16.10;82.20;;;;;;5090927;28;20003;-74
2022/05/22 06:04:39;;;;;;;;;;;16.10;82.80;;;;;;5091121;28;20312;-75
2022/05/22 06:07:05;;;;;;;;;;;16.10;82.20;;;;;;5090956;28;19929;-74
2022/05/22 06:09:30;;;;;;;;;;;16.20;82.20;;;;;;5090788;28;19908;-73
2022/05/22 06:11:56;;;;;;;;;;;16.20;82.20;;;;;;5072629;28;19923;-75
2022/05/22 06:14:21;;;;;;;;;;;16.30;82.40;;;;;;5090776;28;19915;-74
2022/05/22 06:16:47;;;;;;;;;;;16.30;82.30;;;;;;5090707;28;19922;-75
2022/05/22 06:19:13;;;;;;;;;;;16.30;82.50;;;;;;5090802;28;20274;-74
2022/05/22 06:21:38;;;;;;;;;;;16.30;82.60;;;;;;5090549;28;19969;-75
2022/05/22 06:24:04;;;;;;;;;;;16.40;82.60;;;;;;5072451;28;20362;-75
2022/05/22 06:26:30;;;;;;;;;;;16.40;82.60;;;;;;5090873;28;19908;-77
2022/05/22 06:28:55;;;;;;;;;;;16.30;82.60;;;;;;5091116;28;19957;-74
2022/05/22 06:31:21;;;;;;;;;;;16.30;82.60;;;;;;5090615;28;20377;-75
2022/05/22 06:33:47;;;;;;;;;;;16.40;82.70;;;;;;5090446;28;19915;-74
2022/05/22 06:36:14;;;;;;;;;;;16.30;82.70;;;;;;5090380;28;19908;-74
2022/05/22 06:41:24;;;;;;;;;;;16.30;82.90;;;;;;5090461;28;20522;-73
2022/05/22 06:43:53;;;;;;;;;;;16.30;83.00;;;;;;5090373;28;19908;-74
2022/05/22 06:46:24;;;;;;;;;;;16.40;83.10;;;;;;5090305;28;20002;-73
2022/05/22 06:48:50;;;;;;;;;;;16.40;83.00;;;;;;5071786;28;19947;-75
2022/05/22 06:51:15;;;;;;;;;;;16.50;83.00;;;;;;5071821;28;19947;-75
2022/05/22 06:53:41;;;;;;;;;;;16.50;83.00;;;;;;5089959;28;19908;-73
2022/05/22 06:56:07;;;;;;;;;;;16.60;83.10;;;;;;5089952;28;20001;-74
2022/05/22 06:58:32;;;;;;;;;;;16.70;83.00;;;;;;5089957;28;20261;-75
2022/05/22 07:00:58;;;;;;;;;;;16.70;83.00;;;;;;5071741;28;19920;-75
2022/05/22 07:03:23;;;;;;;;;;;16.80;82.90;;;;;;5089547;28;20016;-75
2022/05/22 07:05:49;;;;;;;;;;;16.80;82.80;;;;;;5089927;28;19927;-73
2022/05/22 07:08:14;;;;;;;;;;;16.80;82.80;;;;;;5089985;28;20370;-74
2022/05/22 07:13:24;;;;;;;;;;;16.80;82.90;;;;;;5089695;28;20288;-74
2022/05/22 07:15:57;;;;;;;;;;;16.80;82.90;;;;;;5071473;28;19912;-74
2022/05/22 07:18:22;;;;;;;;;;;16.80;83.00;;;;;;5071412;28;19999;-74
2022/05/22 07:20:48;;;;;;;;;;;16.80;83.00;;;;;;5089707;28;20357;-74
2022/05/22 07:23:13;;;;;;;;;;;16.80;83.00;;;;;;5071240;28;19912;-74
2022/05/22 07:25:39;;;;;;;;;;;16.90;82.90;;;;;;5071349;28;19916;-74
2022/05/22 07:28:05;;;;;;;;;;;16.80;82.40;;;;;;5089217;28;19915;-75
2022/05/22 07:30:32;;;;;;;;;;;16.60;82.10;;;;;;5070710;28;19938;-72
2022/05/22 07:32:58;;;;;;;;;;;16.50;82.10;;;;;;5070781;28;19908;-74
2022/05/22 07:35:23;;;;;;;;;;;16.40;82.10;;;;;;5071010;28;20036;-74
2022/05/22 07:37:50;;;;;;;;;;;16.30;82.10;;;;;;5070872;28;20449;-74
2022/05/22 07:40:16;;;;;;;;;;;16.10;82.10;;;;;;5089135;28;19916;-73
2022/05/22 07:42:41;;;;;;;;;;;16.10;82.20;;;;;;5070881;28;20042;-74
2022/05/22 07:45:07;;;;;;;;;;;16.10;82.10;;;;;;5089024;28;20362;-74
2022/05/22 07:47:32;;;;;;;;;;;16.00;82.10;;;;;;5088862;28;19908;-74
2022/05/22 07:50:16;;;;;;;;;;;15.90;81.80;;;;;;5070811;28;19920;-73
2022/05/22 07:52:42;;;;;;;;;;;15.70;81.90;;;;;;5073201;28;19912;-74
2022/05/22 07:55:14;;;;;;;;;;;15.60;82.20;;;;;;5053818;28;19916;-73
2022/05/22 07:57:43;;;;;;;;;;;15.50;82.50;;;;;;5070222;28;20290;-75
2022/05/22 08:00:09;;;;;;;;;;;15.50;82.80;;;;;;5088527;28;19912;-73
2022/05/22 08:02:35;;;;;;;;;;;15.50;83.10;;;;;;5088699;28;19908;-74
2022/05/22 08:05:01;;;;;;;;;;;15.50;83.40;;;;;;5088743;28;20362;-74
2022/05/22 08:07:27;;;;;;;;;;;15.60;83.90;;;;;;5070336;28;19908;-74
2022/05/22 08:09:52;;;;;;;;;;;15.70;83.90;;;;;;5053863;28;19913;-74
2022/05/22 08:12:18;;;;;;;;;;;15.80;84.00;;;;;;5088563;28;20024;-75
2022/05/22 08:14:44;;;;;;;;;;;15.90;83.90;;;;;;5069980;28;19926;-75
2022/05/22 08:17:10;;;;;;;;;;;16.10;83.90;;;;;;5088376;28;19951;-75
2022/05/22 08:19:36;;;;;;;;;;;16.20;83.70;;;;;;5069939;28;19967;-74
2022/05/22 08:22:01;;;;;;;;;;;16.20;83.50;;;;;;5088268;28;20011;-75
2022/05/22 08:24:27;;;;;;;;;;;16.20;83.40;;;;;;5088249;28;19980;-74
2022/05/22 08:26:53;;;;;;;;;;;16.20;83.40;;;;;;5088215;28;20381;-73
2022/05/22 08:29:18;;;;;;;;;;;16.30;83.60;;;;;;5088253;28;19923;-74
2022/05/22 08:31:44;;;;;;;;;;;16.40;83.60;;;;;;5087985;28;19956;-74
2022/05/22 08:34:10;;;;;;;;;;;16.50;83.50;;;;;;5069906;28;19912;-74
2022/05/22 08:36:35;;;;;;;;;;;16.60;83.30;;;;;;5087929;28;20003;-74
2022/05/22 08:39:01;;;;;;;;;;;16.70;83.30;;;;;;5087920;28;19910;-75
2022/05/22 08:41:29;;;;;;;;;;;16.90;83.30;;;;;;5087982;28;19912;-73
2022/05/22 08:43:58;;;;;;;;;;;17.00;82.90;;;;;;5087866;28;19916;-75
2022/05/22 08:46:27;;;;;;;;;;;17.10;82.40;;;;;;5087762;28;19919;-75
2022/05/22 08:48:57;;;;;;;;;;;17.00;82.20;;;;;;5087660;28;20010;-75
2022/05/22 08:51:43;;;;;;;;;;;17.00;82.00;;;;;;5087965;28;20311;-73
2022/05/22 08:54:26;;;;;;;;;;;16.90;81.80;;;;;;5086842;28;19912;-73
2022/05/22 08:59:39;;;;;;;;;;;16.70;81.90;;;;;;5087963;28;19914;-73
2022/05/22 09:02:23;;;;;;;;;;;16.60;82.00;;;;;;5088135;28;19908;-74
2022/05/22 09:04:48;;;;;;;;;;;16.60;81.80;;;;;;5069346;28;20366;-74
2022/05/22 09:07:20;;;;;;;;;;;16.50;81.90;;;;;;5087810;28;19908;-73
2022/05/22 09:09:52;;;;;;;;;;;16.60;82.00;;;;;;5087692;28;19908;-74
2022/05/22 09:12:21;;;;;;;;;;;16.60;82.00;;;;;;5069688;28;20282;-74
2022/05/22 09:14:52;;;;;;;;;;;16.60;82.70;;;;;;5087692;28;20401;-74
2022/05/22 09:17:21;;;;;;;;;;;16.70;82.30;;;;;;5087243;28;20405;-74
2022/05/22 09:19:46;;;;;;;;;;;16.90;82.40;;;;;;5087508;28;20007;-74
2022/05/22 09:22:12;;;;;;;;;;;17.00;82.10;;;;;;5069070;28;20313;-74
2022/05/22 09:24:53;;;;;;;;;;;17.00;81.70;;;;;;5087444;28;20019;-75
2022/05/22 09:27:29;;;;;;;;;;;17.00;81.70;;;;;;5090673;28;19919;-74
2022/05/22 09:30:12;;;;;;;;;;;17.10;81.80;;;;;;5073474;28;19938;-75
2022/05/22 09:32:41;;;;;;;;;;;17.10;81.80;;;;;;5091115;28;19909;-74
2022/05/22 09:35:15;;;;;;;;;;;17.10;81.70;;;;;;5073039;28;19961;-74
2022/05/22 09:37:47;;;;;;;;;;;17.10;81.80;;;;;;5090735;28;19912;-74
2022/05/22 09:40:27;;;;;;;;;;;17.20;82.00;;;;;;5091282;28;19962;-74
2022/05/22 09:43:11;;;;;;;;;;;17.40;82.30;;;;;;5091146;28;20337;-74
2022/05/22 09:45:36;;;;;;;;;;;17.80;82.30;;;;;;5091069;28;19911;-75
2022/05/22 09:48:35;;;;;;;;;;;18.10;82.00;;;;;;5090833;28;19965;-73
2022/05/22 09:51:20;;;;;;;;;;;18.30;81.60;;;;;;5045319;28;20278;-74
2022/05/22 09:54:07;;;;;;;;;;;18.50;82.20;;;;;;5048617;28;19912;-74
2022/05/22 09:56:52;;;;;;;;;;;19.60;83.90;;;;;;5090096;28;19912;-75
2022/05/22 09:59:24;;;;;;;;;;;21.40;83.50;;;;;;5090251;28;19912;-74
2022/05/22 10:01:52;;;;;;;;;;;23.20;82.60;;;;;;5071978;28;20353;-75
2022/05/22 10:04:36;;;;;;;;;;;24.80;79.10;;;;;;5090374;28;19965;-73
2022/05/22 10:07:02;;;;;;;;;;;25.80;75.50;;;;;;5090461;28;19908;-75
2022/05/22 10:09:46;;;;;;;;;;;26.60;73.10;;;;;;5090605;28;19965;-75
2022/05/22 10:12:29;;;;;;;;;;;27.30;73.10;;;;;;5071780;28;20293;-74
2022/05/22 10:15:01;;;;;;;;;;;27.90;69.20;;;;;;5090209;28;19928;-75
2022/05/22 10:17:48;;;;;;;;;;;28.10;67.50;;;;;;5090047;28;19935;-74
2022/05/22 10:20:13;;;;;;;;;;;28.00;66.80;;;;;;5090149;28;19908;-76
2022/05/22 10:22:45;;;;;;;;;;;27.90;64.60;;;;;;5090128;28;19912;-74
2022/05/22 10:25:20;;;;;;;;;;;28.00;63.50;;;;;;5089981;28;19961;-74
2022/05/22 10:27:50;;;;;;;;;;;27.90;63.00;;;;;;5089442;28;20301;-75
2022/05/22 10:30:19;;;;;;;;;;;27.50;61.60;;;;;;5090121;28;20021;-75
2022/05/22 10:33:07;;;;;;;;;;;26.80;61.60;;;;;;5090050;28;19970;-74
2022/05/22 10:35:37;;;;;;;;;;;26.10;61.00;;;;;;5051618;28;20346;-74
2022/05/22 10:38:06;;;;;;;;;;;25.30;61.10;;;;;;5088907;28;19912;-76
2022/05/22 10:42:44;;;;;;;;;;;25.00;63.00;;;;;;5089849;28;19919;-74
2022/05/22 10:43:17;;;;;;;;;;;25.90;64.40;;;;;;5089689;28;19912;-74
2022/05/22 10:45:43;;;;;;;;;;;26.70;61.90;;;;;;5089756;28;19908;-74
2022/05/22 10:48:24;;;;;;;;;;;27.50;62.90;;;;;;5089660;28;19924;-74
2022/05/22 10:51:11;;;;;;;;;;;28.20;60.30;;;;;;5089427;28;19915;-74
2022/05/22 10:53:47;;;;;;;;;;;28.80;59.80;;;;;;5089236;28;19950;-72
2022/05/22 10:56:18;;;;;;;;;;;29.50;58.80;;;;;;5089001;28;19910;-74
2022/05/22 10:58:51;;;;;;;;;;;29.70;58.30;;;;;;5089486;28;19912;-73
2022/05/22 11:01:19;;;;;;;;;;;29.50;57.80;;;;;;5089470;28;19908;-74
2022/05/22 11:03:44;;;;;;;;;;;28.80;56.80;;;;;;5089594;28;19931;-74
2022/05/22 11:06:20;;;;;;;;;;;27.80;56.70;;;;;;5089446;28;20369;-75
2022/05/22 11:08:48;;;;;;;;;;;27.00;56.70;;;;;;5088873;28;20003;-74
2022/05/22 11:11:14;;;;;;;;;;;26.20;56.50;;;;;;5088871;28;19919;-74
2022/05/22 11:13:40;;;;;;;;;;;25.30;56.60;;;;;;5088832;28;19917;-74
2022/05/22 11:16:13;;;;;;;;;;;24.60;57.70;;;;;;5088387;28;19931;-74
2022/05/22 11:18:39;;;;;;;;;;;24.50;58.80;;;;;;5088258;28;19908;-73
2022/05/22 11:21:11;;;;;;;;;;;24.30;58.60;;;;;;5089338;28;19908;-73
2022/05/22 11:23:55;;;;;;;;;;;24.00;58.30;;;;;;5070384;28;19970;-75
2022/05/22 11:26:34;;;;;;;;;;;23.60;58.50;;;;;;5088343;28;19931;-74
2022/05/22 11:29:18;;;;;;;;;;;23.30;59.50;;;;;;5070754;28;19911;-74
2022/05/22 11:31:54;;;;;;;;;;;23.40;59.90;;;;;;5088688;28;19957;-73
2022/05/22 11:34:39;;;;;;;;;;;23.30;59.40;;;;;;5069889;28;20006;-74
2022/05/22 11:37:20;;;;;;;;;;;23.00;59.20;;;;;;5088334;28;20406;-73
2022/05/22 11:40:04;;;;;;;;;;;22.70;59.50;;;;;;5088514;28;19920;-73
2022/05/22 11:42:29;;;;;;;;;;;22.70;60.70;;;;;;5088072;28;19923;-74
2022/05/22 11:45:15;;;;;;;;;;;23.60;60.70;;;;;;5088375;28;19908;-74
2022/05/22 11:47:50;;;;;;;;;;;24.30;60.30;;;;;;5088070;28;20376;-74
2022/05/22 11:50:28;;;;;;;;;;;24.80;58.90;;;;;;5087385;28;19934;-75
2022/05/22 11:53:12;;;;;;;;;;;24.80;57.60;;;;;;5088146;28;19908;-74
2022/05/22 11:55:53;;;;;;;;;;;24.40;57.40;;;;;;5087989;28;20378;-75
2022/05/22 11:58:30;;;;;;;;;;;23.90;57.70;;;;;;5069823;28;20140;-73
2022/05/22 12:00:57;;;;;;;;;;;23.40;57.60;;;;;;5088082;28;20019;-75
2022/05/22 12:03:35;;;;;;;;;;;22.80;57.70;;;;;;5087580;28;19958;-73
2022/05/22 12:06:02;;;;;;;;;;;22.20;58.10;;;;;;5069692;28;19912;-73
2022/05/22 12:08:46;;;;;;;;;;;21.60;58.90;;;;;;5069514;28;19908;-75
2022/05/22 12:11:21;;;;;;;;;;;21.30;59.50;;;;;;5087701;28;19912;-73
2022/05/22 12:13:53;;;;;;;;;;;21.50;60.90;;;;;;5087669;28;19908;-73
2022/05/22 12:16:23;;;;;;;;;;;22.40;61.60;;;;;;5087337;28;19937;-73
2022/05/22 12:19:07;;;;;;;;;;;23.50;60.70;;;;;;5087460;28;19915;-74
2022/05/22 12:21:47;;;;;;;;;;;24.10;59.10;;;;;;5087788;28;19951;-74
2022/05/22 12:24:16;;;;;;;;;;;24.10;58.10;;;;;;5069339;28;19916;-73
2022/05/22 12:26:42;;;;;;;;;;;24.00;58.60;;;;;;5069198;28;19912;-75
2022/05/22 12:29:24;;;;;;;;;;;24.50;58.90;;;;;;5087084;28;19965;-73
2022/05/22 12:31:57;;;;;;;;;;;25.30;59.20;;;;;;5087181;28;19930;-75
2022/05/22 12:34:34;;;;;;;;;;;26.20;58.30;;;;;;5087481;28;19955;-75
2022/05/22 12:37:01;;;;;;;;;;;26.70;57.80;;;;;;5087363;28;19923;-73
2022/05/22 12:39:29;;;;;;;;;;;27.10;56.40;;;;;;5087414;28;19920;-74
2022/05/22 12:41:58;;;;;;;;;;;27.30;55.80;;;;;;5087090;28;19947;-74
2022/05/22 12:44:28;;;;;;;;;;;27.40;55.10;;;;;;5087365;28;20277;-73
2022/05/22 12:46:55;;;;;;;;;;;26.90;54.20;;;;;;5087430;28;20348;-74
2022/05/22 12:49:29;;;;;;;;;;;26.10;54.00;;;;;;5087158;28;20424;-74
2022/05/22 12:51:59;;;;;;;;;;;25.50;54.90;;;;;;5087182;28;20006;-75
2022/05/22 12:54:26;;;;;;;;;;;24.90;55.50;;;;;;5086844;28;20379;-74
2022/05/22 12:56:52;;;;;;;;;;;24.60;55.90;;;;;;5068797;28;20325;-73
2022/05/22 12:59:17;;;;;;;;;;;24.40;56.70;;;;;;5069161;28;19919;-74
2022/05/22 13:01:45;;;;;;;;;;;24.60;57.20;;;;;;5091294;28;20362;-73
2022/05/22 13:04:19;;;;;;;;;;;24.60;56.60;;;;;;5094355;28;20426;-73
2022/05/22 13:06:51;;;;;;;;;;;24.50;55.90;;;;;;5075649;28;20370;-73
2022/05/22 13:09:24;;;;;;;;;;;24.10;56.00;;;;;;5094146;28;20099;-71
2022/05/22 13:11:57;;;;;;;;;;;23.70;56.30;;;;;;5075622;28;20011;-73
2022/05/22 13:14:46;;;;;;;;;;;23.30;56.50;;;;;;5093628;28;20000;-75
2022/05/22 13:17:13;;;;;;;;;;;22.90;56.90;;;;;;5051267;28;19919;-76
2022/05/22 13:20:08;;;;;;;;;;;22.70;57.30;;;;;;5093701;28;20005;-75
2022/05/22 13:22:35;;;;;;;;;;;22.60;57.60;;;;;;5075987;28;19909;-73
2022/05/22 13:25:03;;;;;;;;;;;22.70;58.20;;;;;;5094220;28;19923;-74
2022/05/22 13:27:35;;;;;;;;;;;22.80;57.70;;;;;;5075194;28;19916;-73
2022/05/22 13:30:04;;;;;;;;;;;23.00;57.60;;;;;;5093743;28;19920;-74
2022/05/22 13:32:48;;;;;;;;;;;23.20;57.50;;;;;;5093728;28;20010;-75
2022/05/22 13:35:24;;;;;;;;;;;23.20;57.40;;;;;;5093756;28;20409;-75
2022/05/22 13:37:51;;;;;;;;;;;23.20;57.30;;;;;;5093155;28;19912;-74
2022/05/22 13:40:29;;;;;;;;;;;23.20;57.40;;;;;;5093330;28;20407;-74
2022/05/22 13:42:58;;;;;;;;;;;23.00;57.40;;;;;;5075133;28;19908;-73
2022/05/22 13:45:26;;;;;;;;;;;22.80;57.80;;;;;;5094035;28;19915;-74
2022/05/22 13:48:10;;;;;;;;;;;22.60;58.00;;;;;;5093220;28;20058;-73
2022/05/22 13:53:44;;;;;;;;;;;22.20;58.50;;;;;;5093760;28;20019;-75
2022/05/22 13:56:13;;;;;;;;;;;22.20;59.10;;;;;;5093080;28;19909;-74
2022/05/22 13:58:41;;;;;;;;;;;22.40;59.10;;;;;;5075074;28;20421;-75
2022/05/22 14:01:17;;;;;;;;;;;22.60;59.10;;;;;;5093521;28;19908;-74
2022/05/22 14:03:47;;;;;;;;;;;22.80;58.80;;;;;;5093406;28;20264;-74
2022/05/22 14:06:15;;;;;;;;;;;23.00;58.40;;;;;;5092640;28;19926;-74
2022/05/22 14:08:45;;;;;;;;;;;23.10;58.60;;;;;;5092908;28;20165;-75
2022/05/22 14:11:13;;;;;;;;;;;23.20;58.50;;;;;;5093121;28;19996;-74
2022/05/22 14:13:49;;;;;;;;;;;23.30;58.30;;;;;;5089022;28;19908;-74
2022/05/22 14:16:20;;;;;;;;;;;23.20;58.00;;;;;;5089627;28;19909;-74
2022/05/22 14:18:56;;;;;;;;;;;23.00;58.20;;;;;;5090040;28;19960;-74
2022/05/22 14:21:21;;;;;;;;;;;22.90;59.00;;;;;;5090216;28;19958;-74
2022/05/22 14:26:32;;;;;;;;;;;23.00;58.10;;;;;;5089981;28;19997;-74
2022/05/22 14:28:57;;;;;;;;;;;23.00;58.00;;;;;;5071070;28;20362;-74
2022/05/22 14:31:26;;;;;;;;;;;23.00;57.50;;;;;;5090046;28;20398;-72
2022/05/22 14:33:59;;;;;;;;;;;22.90;57.50;;;;;;5089705;28;19912;-75
2022/05/22 14:36:25;;;;;;;;;;;22.80;57.70;;;;;;5089086;28;19918;-74
2022/05/22 14:38:51;;;;;;;;;;;22.80;57.90;;;;;;5071187;28;20441;-73
2022/05/22 14:41:19;;;;;;;;;;;22.80;57.50;;;;;;5089520;28;20003;-73
2022/05/22 14:43:50;;;;;;;;;;;22.70;57.80;;;;;;5089181;28;19927;-74
2022/05/22 14:46:28;;;;;;;;;;;22.70;58.00;;;;;;5089324;28;19919;-73
2022/05/22 14:48:54;;;;;;;;;;;22.70;58.10;;;;;;5071105;28;19965;-74